createdAt,value
2018-08-06T00:02:27.111Z,65.86
2018-08-06T00:04:55.228Z,65.69
2018-08-06T00:07:23.524Z,65.61
2018-08-06T00:09:51.592Z,64.84
2018-08-06T00:12:19.551Z,65.63
2018-08-06T00:14:47.439Z,65.60
2018-08-06T00:17:15.446Z,66.17
2018-08-06T00:19:43.499Z,65.95
2018-08-06T00:22:14.409Z,65.80
2018-08-06T00:24:42.226Z,65.47
2018-08-06T00:27:10.284Z,65.53
2018-08-06T00:29:38.269Z,65.41
2018-08-06T00:32:06.251Z,66.32
2018-08-06T00:34:34.186Z,66.21
2018-08-06T00:37:02.244Z,66.59
2018-08-06T00:39:30.238Z,66.79
2018-08-06T00:41:58.169Z,67.33
2018-08-06T00:44:26.580Z,66.81
2018-08-06T00:46:54.538Z,66.04
2018-08-06T00:49:22.451Z,66.16
2018-08-06T00:51:50.911Z,65.79
2018-08-06T00:54:18.799Z,66.67
2018-08-06T00:56:46.872Z,66.50
2018-08-06T00:59:14.936Z,66.16
2018-08-06T01:01:42.959Z,66.15
2018-08-06T01:04:10.861Z,66.55
2018-08-06T01:06:39.024Z,67.24
2018-08-06T01:09:09.249Z,67.30
2018-08-06T01:11:37.701Z,68.34
2018-08-06T01:14:05.619Z,68.68
2018-08-06T01:16:33.707Z,67.33
2018-08-06T01:19:01.754Z,68.33
2018-08-06T01:21:30.069Z,68.30
2018-08-06T01:23:58.157Z,68.33
2018-08-06T01:26:26.119Z,67.70
2018-08-06T01:28:54.408Z,68.51
2018-08-06T01:31:22.417Z,68.40
2018-08-06T01:33:50.239Z,67.61
2018-08-06T01:36:18.508Z,67.78
2018-08-06T01:38:46.411Z,67.70
2018-08-06T01:41:14.363Z,67.76
2018-08-06T01:43:42.658Z,67.17
2018-08-06T01:46:10.643Z,67.45
2018-08-06T01:48:38.551Z,67.54
2018-08-06T01:51:06.682Z,67.23
2018-08-06T01:53:34.556Z,67.82
2018-08-06T01:56:02.585Z,68.90
2018-08-06T01:58:31.135Z,69.27
2018-08-06T02:00:59.104Z,69.46
2018-08-06T02:03:27.124Z,69.99
2018-08-06T02:05:55.526Z,71.08
2018-08-06T02:08:23.581Z,70.92
2018-08-06T02:10:51.554Z,71.83
2018-08-06T02:13:19.716Z,71.48
2018-08-06T02:15:47.787Z,72.65
2018-08-06T02:18:15.775Z,72.74
2018-08-06T02:20:44.012Z,73.12
2018-08-06T02:23:11.876Z,72.85
2018-08-06T02:25:39.784Z,73.53
2018-08-06T02:28:07.640Z,73.63
2018-08-06T02:30:35.458Z,73.45
2018-08-06T02:33:03.393Z,74.02
2018-08-06T02:35:31.564Z,74.00
2018-08-06T02:37:59.443Z,74.88
2018-08-06T02:40:27.478Z,74.04
2018-08-06T02:42:55.382Z,74.08
2018-08-06T02:45:23.275Z,74.90
2018-08-06T02:47:51.139Z,75.06
2018-08-06T02:50:19.635Z,74.17
2018-08-06T02:52:47.545Z,74.13
2018-08-06T02:55:16.196Z,73.99
2018-08-06T02:57:44.227Z,73.94
2018-08-06T03:00:14.378Z,73.95
2018-08-06T03:02:43.722Z,74.62
2018-08-06T03:05:13.687Z,74.14
2018-08-06T03:07:42.943Z,74.25
2018-08-06T03:10:11.206Z,74.13
2018-08-06T03:12:39.260Z,74.69
2018-08-06T03:15:08.635Z,75.01
2018-08-06T03:17:36.833Z,75.23
2018-08-06T03:20:06.219Z,75.04
2018-08-06T03:22:34.215Z,75.92
2018-08-06T03:25:02.341Z,75.84
2018-08-06T03:27:30.570Z,76.34
2018-08-06T03:29:58.529Z,76.00
2018-08-06T03:32:26.353Z,75.62
2018-08-06T03:34:55.018Z,75.12
2018-08-06T03:37:23.172Z,74.68
2018-08-06T03:39:51.106Z,73.79
2018-08-06T03:42:19.551Z,73.87
2018-08-06T03:44:47.578Z,73.14
2018-08-06T03:47:15.410Z,72.85
2018-08-06T03:49:43.440Z,72.68
2018-08-06T03:52:11.343Z,71.96
2018-08-06T03:54:39.322Z,71.21
2018-08-06T03:57:07.418Z,71.79
2018-08-06T03:59:35.545Z,70.86
2018-08-06T04:02:03.966Z,70.81
2018-08-06T04:04:31.986Z,70.10
2018-08-06T04:07:00.047Z,69.24
2018-08-06T04:09:28.373Z,69.05
2018-08-06T04:11:56.430Z,68.40
2018-08-06T04:14:25.630Z,67.96
2018-08-06T04:16:54.003Z,67.73
2018-08-06T04:19:21.972Z,66.22
2018-08-06T04:21:49.752Z,66.26
2018-08-06T04:24:17.861Z,65.87
2018-08-06T04:26:45.881Z,64.58
2018-08-06T04:29:13.824Z,63.99
2018-08-06T04:31:41.889Z,64.07
2018-08-06T04:34:09.771Z,63.71
2018-08-06T04:36:37.739Z,62.71
2018-08-06T04:39:06.901Z,62.12
2018-08-06T04:41:35.027Z,62.15
2018-08-06T04:44:02.959Z,62.23
2018-08-06T04:46:31.280Z,62.54
2018-08-06T04:48:59.192Z,61.66
2018-08-06T04:51:27.220Z,61.26
2018-08-06T04:53:55.888Z,60.78
2018-08-06T04:56:24.103Z,59.67
2018-08-06T04:58:52.227Z,58.98
2018-08-06T05:01:20.287Z,58.01
2018-08-06T05:03:48.264Z,57.88
2018-08-06T05:06:16.202Z,58.96
2018-08-06T05:08:44.488Z,58.15
2018-08-06T05:11:12.538Z,57.39
2018-08-06T05:13:40.567Z,56.84
2018-08-06T05:16:09.115Z,56.69
2018-08-06T05:18:37.111Z,55.02
2018-08-06T05:21:05.288Z,55.35
2018-08-06T05:23:40.470Z,55.11
2018-08-06T05:26:08.764Z,53.98
2018-08-06T05:28:37.214Z,54.12
2018-08-06T05:31:05.957Z,54.65
2018-08-06T05:33:33.814Z,53.98
2018-08-06T05:36:01.721Z,53.70
2018-08-06T05:38:29.918Z,52.38
2018-08-06T05:40:57.911Z,51.81
2018-08-06T05:43:25.973Z,52.11
2018-08-06T05:45:53.911Z,50.68
2018-08-06T05:48:21.764Z,50.16
2018-08-06T05:50:49.589Z,50.29
2018-08-06T05:53:17.443Z,51.02
2018-08-06T05:55:45.340Z,50.52
2018-08-06T05:58:13.183Z,50.45
2018-08-06T06:00:40.964Z,51.19
2018-08-06T06:03:08.814Z,51.23
2018-08-06T06:05:36.591Z,53.20
2018-08-06T06:08:05.088Z,53.56
2018-08-06T06:10:33.075Z,52.82
2018-08-06T06:13:01.124Z,54.24
2018-08-06T06:15:29.299Z,54.04
2018-08-06T06:17:57.098Z,54.51
2018-08-06T06:20:24.981Z,54.57
2018-08-06T06:22:53.183Z,55.55
2018-08-06T06:25:21.147Z,55.74
2018-08-06T06:27:49.094Z,54.74
2018-08-06T06:30:17.726Z,54.40
2018-08-06T06:32:45.683Z,54.81
2018-08-06T06:35:14.092Z,54.51
2018-08-06T06:37:42.749Z,54.70
2018-08-06T06:40:10.801Z,55.77
2018-08-06T06:42:38.718Z,54.93
2018-08-06T06:45:08.258Z,55.27
2018-08-06T06:47:36.174Z,53.20
2018-08-06T06:50:04.432Z,53.13
2018-08-06T06:52:32.809Z,54.50
2018-08-06T06:55:00.522Z,53.39
2018-08-06T06:57:28.564Z,53.15
2018-08-06T06:59:56.597Z,53.49
2018-08-06T07:02:24.449Z,53.03
2018-08-06T07:04:52.623Z,55.37
2018-08-06T07:07:20.515Z,53.53
2018-08-06T07:09:48.385Z,53.48
2018-08-06T07:12:16.302Z,53.54
2018-08-06T07:14:44.710Z,53.16
2018-08-06T07:17:12.600Z,53.20
2018-08-06T07:19:40.466Z,51.41
2018-08-06T07:22:08.996Z,51.67
2018-08-06T07:24:36.840Z,51.12
2018-08-06T07:27:04.809Z,50.69
2018-08-06T07:29:33.227Z,50.03
2018-08-06T07:32:01.110Z,49.12
2018-08-06T07:34:28.994Z,49.75
2018-08-06T07:36:57.431Z,49.27
2018-08-06T07:39:25.216Z,48.17
2018-08-06T07:41:52.949Z,48.59
2018-08-06T07:44:20.866Z,47.50
2018-08-06T07:46:48.733Z,47.69
2018-08-06T07:49:16.629Z,47.48
2018-08-06T07:51:44.552Z,47.62
2018-08-06T07:54:12.454Z,47.82
2018-08-06T07:56:40.432Z,46.74
2018-08-06T07:59:08.302Z,46.49
2018-08-06T08:01:36.118Z,46.18
2018-08-06T08:04:04.119Z,46.17
2018-08-06T08:06:32.133Z,45.67
2018-08-06T08:08:59.982Z,45.80
2018-08-06T08:11:27.844Z,45.02
2018-08-06T08:13:55.942Z,45.69
2018-08-06T08:16:23.772Z,45.85
2018-08-06T08:18:51.739Z,45.64
2018-08-06T08:21:20.200Z,44.59
2018-08-06T08:23:48.079Z,43.86
2018-08-06T08:26:16.173Z,44.35
2018-08-06T08:28:44.147Z,42.81
2018-08-06T08:31:12.952Z,43.16
2018-08-06T08:33:40.920Z,42.65
2018-08-06T08:36:08.772Z,42.58
2018-08-06T08:38:36.671Z,42.65
2018-08-06T08:41:04.744Z,43.28
2018-08-06T08:43:32.758Z,43.04
2018-08-06T08:46:00.733Z,43.11
2018-08-06T08:48:28.675Z,41.43
2018-08-06T08:50:56.595Z,41.68
2018-08-06T08:53:24.622Z,41.13
2018-08-06T08:55:52.556Z,41.50
2018-08-06T08:58:20.400Z,41.16
2018-08-06T09:00:48.200Z,40.87
2018-08-06T09:03:16.146Z,40.24
2018-08-06T09:05:44.524Z,38.17
2018-08-06T09:08:12.439Z,38.75
2018-08-06T09:10:40.344Z,38.98
2018-08-06T09:13:08.247Z,38.17
2018-08-06T09:15:36.139Z,39.02
2018-08-06T09:18:04.122Z,38.45
2018-08-06T09:20:32.098Z,38.36
2018-08-06T09:22:59.931Z,38.83
2018-08-06T09:25:27.819Z,37.67
2018-08-06T09:27:55.694Z,37.28
2018-08-06T09:30:24.444Z,37.55
2018-08-06T09:32:53.603Z,38.12
2018-08-06T09:35:21.922Z,36.53
2018-08-06T09:37:50.564Z,35.06
2018-08-06T09:40:19.594Z,36.00
2018-08-06T09:42:48.326Z,36.17
2018-08-06T09:45:17.441Z,36.17
2018-08-06T09:47:46.694Z,36.54
2018-08-06T09:50:15.425Z,35.79
2018-08-06T09:52:44.296Z,33.83
2018-08-06T09:55:17.186Z,34.52
2018-08-06T09:57:45.246Z,33.94
2018-08-06T10:00:23.526Z,32.88
2018-08-06T10:02:52.095Z,33.35
2018-08-06T10:05:21.063Z,32.99
2018-08-06T10:07:49.285Z,33.41
2018-08-06T10:10:17.157Z,32.98
2018-08-06T10:12:45.590Z,31.28
2018-08-06T10:15:14.324Z,30.78
2018-08-06T10:17:43.217Z,31.11
2018-08-06T10:20:13.238Z,32.16
2018-08-06T10:22:41.594Z,31.38
2018-08-06T10:25:11.118Z,32.13
2018-08-06T10:27:39.917Z,32.40
2018-08-06T10:30:23.526Z,30.27
2018-08-06T10:32:51.336Z,30.48
2018-08-06T10:35:19.884Z,30.63
2018-08-06T10:37:47.994Z,31.78
2018-08-06T10:40:20.957Z,30.65
2018-08-06T10:42:49.035Z,29.03
2018-08-06T10:45:18.996Z,29.26
2018-08-06T10:47:47.296Z,30.31
2018-08-06T10:50:15.256Z,32.27
2018-08-06T10:52:43.175Z,32.22
2018-08-06T10:55:11.516Z,31.35
2018-08-06T10:57:41.159Z,32.21
2018-08-06T11:00:22.174Z,32.26
2018-08-06T11:02:50.824Z,31.49
2018-08-06T11:05:19.389Z,32.28
2018-08-06T11:07:47.185Z,32.05
2018-08-06T11:10:16.583Z,31.57
2018-08-06T11:12:44.419Z,29.92
2018-08-06T11:15:22.201Z,29.19
2018-08-06T11:17:50.296Z,28.94
2018-08-06T11:20:19.006Z,28.70
2018-08-06T11:22:47.374Z,27.17
2018-08-06T11:25:16.792Z,26.63
2018-08-06T11:27:44.792Z,27.97
2018-08-06T11:30:15.784Z,27.86
2018-08-06T11:32:44.730Z,27.96
2018-08-06T11:35:14.021Z,30.37
2018-08-06T11:37:42.347Z,28.07
2018-08-06T11:40:11.287Z,28.65
2018-08-06T11:42:39.956Z,26.97
2018-08-06T11:45:09.497Z,26.85
2018-08-06T11:47:37.441Z,27.70
2018-08-06T11:50:05.839Z,28.42
2018-08-06T11:52:34.103Z,27.57
2018-08-06T11:55:02.140Z,27.67
2018-08-06T11:57:30.072Z,26.63
2018-08-06T11:59:58.340Z,26.12
2018-08-06T12:02:26.702Z,25.92
2018-08-06T12:04:54.623Z,25.86
2018-08-06T12:07:23.140Z,26.80
2018-08-06T12:09:51.106Z,26.44
2018-08-06T12:12:19.536Z,25.92
2018-08-06T12:14:48.791Z,26.96
2018-08-06T12:17:16.754Z,27.80
2018-08-06T12:19:44.603Z,28.68
2018-08-06T12:22:12.728Z,28.51
2018-08-06T12:24:40.606Z,28.80
2018-08-06T12:27:08.589Z,28.68
2018-08-06T12:29:36.424Z,29.78
2018-08-06T12:32:04.392Z,29.65
2018-08-06T12:34:32.274Z,28.68
2018-08-06T12:37:00.596Z,28.27
2018-08-06T12:39:28.542Z,29.15
2018-08-06T12:41:56.444Z,27.82
2018-08-06T12:44:24.388Z,28.25
2018-08-06T12:46:52.335Z,27.85
2018-08-06T12:49:20.339Z,28.58
2018-08-06T12:51:48.850Z,29.04
2018-08-06T12:54:16.726Z,28.58
2018-08-06T12:56:44.623Z,29.01
2018-08-06T12:59:12.543Z,27.96
2018-08-06T13:01:40.402Z,27.52
2018-08-06T13:04:08.152Z,28.65
2018-08-06T13:06:36.604Z,29.09
2018-08-06T13:09:07.467Z,28.80
2018-08-06T13:11:35.268Z,27.97
2018-08-06T13:14:03.666Z,27.81
2018-08-06T13:16:31.547Z,28.94
2018-08-06T13:18:59.468Z,28.95
2018-08-06T13:21:27.868Z,29.14
2018-08-06T13:23:55.685Z,29.94
2018-08-06T13:26:23.566Z,28.64
2018-08-06T13:28:51.855Z,28.43
2018-08-06T13:31:19.771Z,28.48
2018-08-06T13:33:47.460Z,29.43
2018-08-06T13:36:15.383Z,29.35
2018-08-06T13:38:43.388Z,28.66
2018-08-06T13:41:11.233Z,28.98
2018-08-06T13:43:39.084Z,28.56
2018-08-06T13:46:07.284Z,28.37
2018-08-06T13:48:35.134Z,27.88
2018-08-06T13:51:03.490Z,28.56
2018-08-06T13:53:31.471Z,27.41
2018-08-06T13:55:59.364Z,27.64
2018-08-06T13:58:27.383Z,28.78
2018-08-06T14:00:55.482Z,29.16
2018-08-06T14:03:23.394Z,28.36
2018-08-06T14:05:51.901Z,28.04
2018-08-06T14:08:19.815Z,27.89
2018-08-06T14:10:47.841Z,28.47
2018-08-06T14:13:16.278Z,28.02
2018-08-06T14:15:44.356Z,29.64
2018-08-06T14:18:13.493Z,29.07
2018-08-06T14:20:41.670Z,29.79
2018-08-06T14:23:09.738Z,28.84
2018-08-06T14:25:37.778Z,28.80
2018-08-06T14:28:05.764Z,29.25
2018-08-06T14:30:33.733Z,28.03
2018-08-06T14:33:01.755Z,28.42
2018-08-06T14:35:30.783Z,28.64
2018-08-06T14:37:58.810Z,28.67
2018-08-06T14:40:26.724Z,29.65
2018-08-06T14:42:55.326Z,29.68
2018-08-06T14:45:23.214Z,29.52
2018-08-06T14:47:51.130Z,28.67
2018-08-06T14:50:19.386Z,28.61
2018-08-06T14:52:47.348Z,28.76
2018-08-06T14:55:15.322Z,29.03
2018-08-06T14:57:43.239Z,28.59
2018-08-06T15:00:17.934Z,30.09
2018-08-06T15:02:46.639Z,29.71
2018-08-06T15:05:14.434Z,31.55
2018-08-06T15:07:42.704Z,29.55
2018-08-06T15:10:11.680Z,30.42
2018-08-06T15:12:39.844Z,30.74
2018-08-06T15:15:13.485Z,30.78
2018-08-06T15:17:55.206Z,30.62
2018-08-06T15:20:23.998Z,31.74
2018-08-06T15:22:56.193Z,31.90
2018-08-06T15:25:24.873Z,31.27
2018-08-06T15:27:57.421Z,32.06
2018-08-06T15:30:25.932Z,30.95
2018-08-06T15:32:55.652Z,30.78
2018-08-06T15:35:32.737Z,30.52
2018-08-06T15:38:02.179Z,30.37
2018-08-06T15:40:30.663Z,31.86
2018-08-06T15:43:00.896Z,31.92
2018-08-06T15:45:30.089Z,32.68
2018-08-06T15:47:58.592Z,32.67
2018-08-06T15:50:27.306Z,32.52
2018-08-06T15:52:56.176Z,33.13
2018-08-06T15:55:30.604Z,32.19
2018-08-06T15:57:58.773Z,33.22
2018-08-06T16:00:27.041Z,34.10
2018-08-06T16:02:55.443Z,34.74
2018-08-06T16:05:24.676Z,33.12
2018-08-06T16:07:52.978Z,33.98
2018-08-06T16:10:21.777Z,34.54
2018-08-06T16:12:51.005Z,34.70
2018-08-06T16:15:24.681Z,34.71
2018-08-06T16:17:52.957Z,34.19
2018-08-06T16:20:21.228Z,34.59
2018-08-06T16:22:50.454Z,35.51
2018-08-06T16:25:19.739Z,35.21
2018-08-06T16:27:48.030Z,35.22
2018-08-06T16:30:22.966Z,36.39
2018-08-06T16:32:51.820Z,35.63
2018-08-06T16:35:21.446Z,35.12
2018-08-06T16:37:51.382Z,35.85
2018-08-06T16:40:19.639Z,35.11
2018-08-06T16:42:48.517Z,35.86
2018-08-06T16:45:16.778Z,35.86
2018-08-06T16:47:48.677Z,35.51
2018-08-06T16:50:18.352Z,36.86
2018-08-06T16:52:46.812Z,35.56
2018-08-06T16:55:14.809Z,36.36
2018-08-06T16:57:44.417Z,36.37
2018-08-06T17:00:15.579Z,36.68
2018-08-06T17:02:44.072Z,36.81
2018-08-06T17:05:17.340Z,37.82
2018-08-06T17:07:46.731Z,37.07
2018-08-06T17:10:18.490Z,37.49
2018-08-06T17:12:49.270Z,39.32
2018-08-06T17:15:18.584Z,40.09
2018-08-06T17:17:49.045Z,40.79
2018-08-06T17:20:19.122Z,41.46
2018-08-06T17:22:48.849Z,41.74
2018-08-06T17:25:17.355Z,42.76
2018-08-06T17:27:46.603Z,42.72
2018-08-06T17:30:19.568Z,42.19
2018-08-06T17:32:48.516Z,43.11
2018-08-06T17:35:20.152Z,44.04
2018-08-06T17:37:49.588Z,44.12
2018-08-06T17:40:18.629Z,45.60
2018-08-06T17:42:53.862Z,46.55
2018-08-06T17:45:25.768Z,45.60
2018-08-06T17:47:54.031Z,45.84
2018-08-06T17:50:23.401Z,47.02
2018-08-06T17:52:56.265Z,46.55
2018-08-06T17:55:24.641Z,47.44
2018-08-06T17:57:53.881Z,45.77
2018-08-06T18:00:22.308Z,45.51
2018-08-06T18:02:50.828Z,45.21
2018-08-06T18:05:22.808Z,45.27
2018-08-06T18:07:51.258Z,46.01
2018-08-06T18:10:24.912Z,46.05
2018-08-06T18:12:53.343Z,46.69
2018-08-06T18:15:22.259Z,46.36
2018-08-06T18:17:51.045Z,45.62
2018-08-06T18:20:19.533Z,47.20
2018-08-06T18:22:48.793Z,46.95
2018-08-06T18:25:18.326Z,47.64
2018-08-06T18:27:47.836Z,47.53
2018-08-06T18:30:18.882Z,47.62
2018-08-06T18:32:47.457Z,48.66
2018-08-06T18:35:17.562Z,47.93
2018-08-06T18:37:45.715Z,48.86
2018-08-06T18:40:14.778Z,49.15
2018-08-06T18:42:43.228Z,49.74
2018-08-06T18:45:13.849Z,50.14
2018-08-06T18:47:42.648Z,50.45
2018-08-06T18:50:12.008Z,50.72
2018-08-06T18:52:40.308Z,50.75
2018-08-06T18:55:10.338Z,51.29
2018-08-06T18:57:38.436Z,50.99
2018-08-06T19:00:08.872Z,50.85
2018-08-06T19:02:37.339Z,51.34
2018-08-06T19:05:05.957Z,51.49
2018-08-06T19:07:33.787Z,50.93
2018-08-06T19:10:02.419Z,51.07
2018-08-06T19:12:35.955Z,51.27
2018-08-06T19:15:04.545Z,52.25
2018-08-06T19:17:32.602Z,52.61
2018-08-06T19:20:00.563Z,51.87
2018-08-06T19:22:28.901Z,53.08
2018-08-06T19:25:02.139Z,53.16
2018-08-06T19:27:30.167Z,53.04
2018-08-06T19:29:58.243Z,52.67
2018-08-06T19:32:26.188Z,52.81
2018-08-06T19:34:58.555Z,53.67
2018-08-06T19:37:32.055Z,53.56
2018-08-06T19:40:00.091Z,53.85
2018-08-06T19:42:32.619Z,53.82
2018-08-06T19:45:00.974Z,53.17
2018-08-06T19:47:28.936Z,53.04
2018-08-06T19:51:01.239Z,53.65
2018-08-06T19:53:29.204Z,54.17
2018-08-06T19:56:02.808Z,54.18
2018-08-06T19:58:30.668Z,53.90
2018-08-06T20:00:58.720Z,53.58
2018-08-06T20:03:26.756Z,52.99
2018-08-06T20:05:54.708Z,53.42
2018-08-06T20:08:22.674Z,53.30
2018-08-06T20:10:50.642Z,53.58
2018-08-06T20:13:19.801Z,52.84
2018-08-06T20:15:47.878Z,53.33
2018-08-06T20:18:16.338Z,54.45
2018-08-06T20:20:44.233Z,54.49
2018-08-06T20:23:12.234Z,54.43
2018-08-06T20:25:40.347Z,54.72
2018-08-06T20:28:08.277Z,54.74
2018-08-06T20:30:36.504Z,55.23
2018-08-06T20:33:05.207Z,55.41
2018-08-06T20:35:33.205Z,54.99
2018-08-06T20:38:01.313Z,55.44
2018-08-06T20:40:29.517Z,55.64
2018-08-06T20:42:57.847Z,56.35
2018-08-06T20:45:26.622Z,56.13
2018-08-06T20:47:54.955Z,55.59
2018-08-06T20:50:23.930Z,55.93
2018-08-06T20:52:52.962Z,56.94
2018-08-06T20:55:22.215Z,57.62
2018-08-06T20:57:50.601Z,57.48
2018-08-06T21:00:22.703Z,57.69
2018-08-06T21:02:51.259Z,58.18
2018-08-06T21:05:19.524Z,57.93
2018-08-06T21:07:47.853Z,57.81
2018-08-06T21:10:16.681Z,58.81
2018-08-06T21:12:45.000Z,58.30
2018-08-06T21:15:14.015Z,58.42
2018-08-06T21:17:42.658Z,59.39
2018-08-06T21:20:12.091Z,58.58
2018-08-06T21:22:41.075Z,59.86
2018-08-06T21:25:10.615Z,59.53
2018-08-06T21:27:39.216Z,58.39
2018-08-06T21:30:09.680Z,58.21
2018-08-06T21:32:38.249Z,58.90
2018-08-06T21:35:06.859Z,59.31
2018-08-06T21:37:35.122Z,59.21
2018-08-06T21:40:03.640Z,59.84
2018-08-06T21:42:31.799Z,60.05
2018-08-06T21:44:59.693Z,60.23
2018-08-06T21:47:27.687Z,60.01
2018-08-06T21:49:55.830Z,60.25
2018-08-06T21:52:23.761Z,59.89
2018-08-06T21:54:52.322Z,60.35
2018-08-06T21:57:20.350Z,59.95
2018-08-06T21:59:48.376Z,60.39
2018-08-06T22:02:16.867Z,60.80
2018-08-06T22:04:44.878Z,60.72
2018-08-06T22:07:12.744Z,60.94
2018-08-06T22:09:41.135Z,61.03
2018-08-06T22:12:09.183Z,59.96
2018-08-06T22:14:37.366Z,60.45
2018-08-06T22:17:05.764Z,59.40
2018-08-06T22:19:33.751Z,59.12
2018-08-06T22:22:01.831Z,59.32
2018-08-06T22:24:29.900Z,60.27
2018-08-06T22:26:57.878Z,60.85
2018-08-06T22:29:25.871Z,59.80
2018-08-06T22:31:53.869Z,60.59
2018-08-06T22:34:21.916Z,60.13
2018-08-06T22:36:49.941Z,60.80
2018-08-06T22:39:17.930Z,60.73
2018-08-06T22:41:46.017Z,60.58
2018-08-06T22:44:14.070Z,61.21
2018-08-06T22:46:42.159Z,61.56
2018-08-06T22:49:10.213Z,62.24
2018-08-06T22:51:38.158Z,62.30
2018-08-06T22:54:06.008Z,63.22
2018-08-06T22:56:34.063Z,63.72
2018-08-06T22:59:02.212Z,64.48
2018-08-06T23:01:30.227Z,65.03
2018-08-06T23:03:58.075Z,65.75
2018-08-06T23:06:26.128Z,66.36
2018-08-06T23:08:54.369Z,66.11
2018-08-06T23:11:22.419Z,66.80
2018-08-06T23:13:50.438Z,67.16
2018-08-06T23:16:18.804Z,67.71
2018-08-06T23:18:46.803Z,68.78
2018-08-06T23:21:14.824Z,69.15
2018-08-06T23:23:42.813Z,70.57
2018-08-06T23:26:10.734Z,71.04
2018-08-06T23:28:38.769Z,71.47
2018-08-06T23:31:07.079Z,71.78
2018-08-06T23:33:34.937Z,72.02
2018-08-06T23:36:02.769Z,72.00
2018-08-06T23:38:30.953Z,72.65
2018-08-06T23:40:59.134Z,72.22
2018-08-06T23:43:27.174Z,71.81
2018-08-06T23:45:55.763Z,72.90
2018-08-06T23:48:23.915Z,72.41
2018-08-06T23:50:51.943Z,72.19
2018-08-06T23:53:20.020Z,72.57
2018-08-06T23:55:47.987Z,73.46
2018-08-06T23:58:16.167Z,72.75
